sensor_id;sensor_type;location;lat;lon;timestamp;pressure;altitude;pressure_sealevel;temperature;humidity
8703;BME280;9002;42.708;23.186;2023-09-19T00:00:56;95350.41;;;19.90;59.86
8703;BME280;9002;42.708;23.186;2023-09-19T00:03:23;95333.84;;;19.78;59.80
8703;BME280;9002;42.708;23.186;2023-09-19T00:05:52;95322.84;;;19.46;60.72
8703;BME280;9002;42.708;23.186;2023-09-19T00:08:21;95328.78;;;19.41;61.52
8703;BME280;9002;42.708;23.186;2023-09-19T00:10:50;95281.16;;;19.14;61.43
8703;BME280;9002;42.708;23.186;2023-09-19T00:13:19;95353.47;;;19.75;61.26
8703;BME280;9002;42.708;23.186;2023-09-19T00:15:47;95359.53;;;19.76;61.09
8703;BME280;9002;42.708;23.186;2023-09-19T00:18:15;95321.97;;;19.64;60.63
8703;BME280;9002;42.708;23.186;2023-09-19T00:20:42;95355.88;;;20.00;60.33
8703;BME280;9002;42.708;23.186;2023-09-19T00:23:14;95346.75;;;20.03;60.01
8703;BME280;9002;42.708;23.186;2023-09-19T00:25:41;95347.66;;;19.97;60.35
8703;BME280;9002;42.708;23.186;2023-09-19T00:28:08;95344.69;;;20.05;60.15
8703;BME280;9002;42.708;23.186;2023-09-19T00:30:35;95321.84;;;19.82;60.32
8703;BME280;9002;42.708;23.186;2023-09-19T00:33:04;95342.19;;;19.87;60.67
8703;BME280;9002;42.708;23.186;2023-09-19T00:35:33;95328.47;;;19.85;60.55
8703;BME280;9002;42.708;23.186;2023-09-19T00:38:00;95292.41;;;19.57;60.67
8703;BME280;9002;42.708;23.186;2023-09-19T00:40:28;95336.13;;;19.98;60.62
8703;BME280;9002;42.708;23.186;2023-09-19T00:42:58;95332.13;;;19.95;60.36
8703;BME280;9002;42.708;23.186;2023-09-19T00:45:26;95314.44;;;19.56;61.19
8703;BME280;9002;42.708;23.186;2023-09-19T00:47:54;95334.19;;;19.82;61.28
8703;BME280;9002;42.708;23.186;2023-09-19T00:50:24;95333.84;;;19.90;61.18
8703;BME280;9002;42.708;23.186;2023-09-19T00:52:54;95342.19;;;19.87;61.32
8703;BME280;9002;42.708;23.186;2023-09-19T00:55:24;95340.47;;;19.81;61.33
8703;BME280;9002;42.708;23.186;2023-09-19T00:57:55;95338.28;;;19.77;61.77
8703;BME280;9002;42.708;23.186;2023-09-19T01:00:22;95336.13;;;19.74;62.05
8703;BME280;9002;42.708;23.186;2023-09-19T01:02:50;95327.66;;;19.72;61.51
8703;BME280;9002;42.708;23.186;2023-09-19T01:05:17;95321.06;;;19.58;61.84
8703;BME280;9002;42.708;23.186;2023-09-19T01:07:44;95345.25;;;19.84;61.46
8703;BME280;9002;42.708;23.186;2023-09-19T01:10:12;95340.13;;;19.89;61.20
8703;BME280;9002;42.708;23.186;2023-09-19T01:12:48;95340.56;;;19.74;61.51
8703;BME280;9002;42.708;23.186;2023-09-19T01:15:27;95312.16;;;19.59;61.58
8703;BME280;9002;42.708;23.186;2023-09-19T01:18:00;95317.06;;;19.56;62.08
8703;BME280;9002;42.708;23.186;2023-09-19T01:20:39;95337.28;;;19.55;61.82
8703;BME280;9002;42.708;23.186;2023-09-19T01:23:13;95355.13;;;19.46;62.22
8703;BME280;9002;42.708;23.186;2023-09-19T01:26:05;95353.06;;;19.37;63.00
8703;BME280;9002;42.708;23.186;2023-09-19T01:28:51;95338.50;;;19.64;62.13
8703;BME280;9002;42.708;23.186;2023-09-19T01:31:23;95323.69;;;19.58;62.06
8703;BME280;9002;42.708;23.186;2023-09-19T01:33:55;95316.84;;;19.57;62.29
8703;BME280;9002;42.708;23.186;2023-09-19T01:36:31;95302.19;;;19.38;62.82
8703;BME280;9002;42.708;23.186;2023-09-19T01:39:02;95345.44;;;19.47;63.04
8703;BME280;9002;42.708;23.186;2023-09-19T01:41:45;95338.13;;;19.49;63.02
8703;BME280;9002;42.708;23.186;2023-09-19T01:44:19;95340.69;;;19.56;63.17
8703;BME280;9002;42.708;23.186;2023-09-19T01:46:50;95338.63;;;19.58;62.86
8703;BME280;9002;42.708;23.186;2023-09-19T01:49:24;95345.94;;;19.56;63.06
8703;BME280;9002;42.708;23.186;2023-09-19T01:51:58;95335.56;;;19.19;63.99
8703;BME280;9002;42.708;23.186;2023-09-19T01:54:34;95351.06;;;19.21;64.03
8703;BME280;9002;42.708;23.186;2023-09-19T01:57:08;95327.72;;;19.31;63.66
8703;BME280;9002;42.708;23.186;2023-09-19T01:59:43;95334.72;;;19.07;64.32
8703;BME280;9002;42.708;23.186;2023-09-19T02:02:13;95275.66;;;18.93;63.64
8703;BME280;9002;42.708;23.186;2023-09-19T02:04:43;95349.66;;;19.48;63.84
8703;BME280;9002;42.708;23.186;2023-09-19T02:07:10;95345.13;;;19.67;62.90
8703;BME280;9002;42.708;23.186;2023-09-19T02:09:37;95316.63;;;19.17;63.66
8703;BME280;9002;42.708;23.186;2023-09-19T02:12:05;95313.22;;;19.28;63.60
8703;BME280;9002;42.708;23.186;2023-09-19T02:14:33;95287.25;;;18.85;64.18
8703;BME280;9002;42.708;23.186;2023-09-19T02:17:01;95269.53;;;18.69;64.64
8703;BME280;9002;42.708;23.186;2023-09-19T02:19:32;95322.69;;;19.29;63.75
8703;BME280;9002;42.708;23.186;2023-09-19T02:21:59;95277.00;;;18.84;64.19
8703;BME280;9002;42.708;23.186;2023-09-19T02:24:25;95340.22;;;19.17;64.42
8703;BME280;9002;42.708;23.186;2023-09-19T02:26:52;95312.41;;;19.04;64.43
8703;BME280;9002;42.708;23.186;2023-09-19T02:29:20;95317.28;;;19.12;64.57
8703;BME280;9002;42.708;23.186;2023-09-19T02:31:47;95330.09;;;19.21;64.44
8703;BME280;9002;42.708;23.186;2023-09-19T02:34:14;95302.19;;;18.85;65.00
8703;BME280;9002;42.708;23.186;2023-09-19T02:36:43;95328.00;;;19.11;65.02
8703;BME280;9002;42.708;23.186;2023-09-19T02:39:11;95281.03;;;18.68;65.14
8703;BME280;9002;42.708;23.186;2023-09-19T02:41:38;95304.84;;;18.96;65.27
8703;BME280;9002;42.708;23.186;2023-09-19T02:44:07;95295.81;;;18.92;65.07
8703;BME280;9002;42.708;23.186;2023-09-19T02:46:34;95320.59;;;19.08;64.97
8703;BME280;9002;42.708;23.186;2023-09-19T02:49:02;95314.53;;;18.96;65.40
8703;BME280;9002;42.708;23.186;2023-09-19T02:51:30;95316.44;;;18.89;65.66
8703;BME280;9002;42.708;23.186;2023-09-19T02:53:59;95286.56;;;18.60;65.55
8703;BME280;9002;42.708;23.186;2023-09-19T02:56:28;95318.06;;;18.90;65.88
8703;BME280;9002;42.708;23.186;2023-09-19T02:58:56;95284.94;;;18.77;65.94
8703;BME280;9002;42.708;23.186;2023-09-19T03:01:23;95317.38;;;18.94;65.54
8703;BME280;9002;42.708;23.186;2023-09-19T03:03:50;95286.31;;;18.79;65.40
8703;BME280;9002;42.708;23.186;2023-09-19T03:06:17;95312.13;;;18.94;65.12
8703;BME280;9002;42.708;23.186;2023-09-19T03:08:45;95303.44;;;18.82;65.43
8703;BME280;9002;42.708;23.186;2023-09-19T03:11:15;95297.19;;;18.95;64.48
8703;BME280;9002;42.708;23.186;2023-09-19T03:13:51;95306.31;;;18.92;64.97
8703;BME280;9002;42.708;23.186;2023-09-19T03:16:17;95265.03;;;18.88;64.19
8703;BME280;9002;42.708;23.186;2023-09-19T03:18:47;95286.00;;;18.88;64.86
8703;BME280;9002;42.708;23.186;2023-09-19T03:21:15;95297.50;;;18.87;65.30
8703;BME280;9002;42.708;23.186;2023-09-19T03:23:42;95298.94;;;19.01;65.33
8703;BME280;9002;42.708;23.186;2023-09-19T03:26:11;95264.63;;;18.42;66.22
8703;BME280;9002;42.708;23.186;2023-09-19T03:28:41;95302.88;;;18.62;66.61
8703;BME280;9002;42.708;23.186;2023-09-19T03:31:09;95292.19;;;18.63;66.73
8703;BME280;9002;42.708;23.186;2023-09-19T03:33:36;95292.31;;;18.68;66.35
8703;BME280;9002;42.708;23.186;2023-09-19T03:36:04;95299.81;;;18.65;66.87
8703;BME280;9002;42.708;23.186;2023-09-19T03:38:31;95284.94;;;18.59;66.13
8703;BME280;9002;42.708;23.186;2023-09-19T03:40:59;95285.16;;;18.45;66.92
8703;BME280;9002;42.708;23.186;2023-09-19T03:43:26;95292.63;;;18.60;66.77
8703;BME280;9002;42.708;23.186;2023-09-19T03:45:55;95320.84;;;18.58;67.00
8703;BME280;9002;42.708;23.186;2023-09-19T03:48:22;95319.47;;;18.74;66.54
8703;BME280;9002;42.708;23.186;2023-09-19T03:50:49;95311.47;;;18.99;65.69
8703;BME280;9002;42.708;23.186;2023-09-19T03:53:16;95321.69;;;18.89;65.88
8703;BME280;9002;42.708;23.186;2023-09-19T03:55:45;95288.38;;;18.59;66.08
8703;BME280;9002;42.708;23.186;2023-09-19T03:58:13;95302.66;;;18.63;66.23
8703;BME280;9002;42.708;23.186;2023-09-19T04:00:40;95324.63;;;18.80;66.09
8703;BME280;9002;42.708;23.186;2023-09-19T04:03:08;95317.03;;;18.91;65.86
8703;BME280;9002;42.708;23.186;2023-09-19T04:05:44;95316.72;;;19.10;64.95
8703;BME280;9002;42.708;23.186;2023-09-19T04:08:11;95326.97;;;19.00;65.33
8703;BME280;9002;42.708;23.186;2023-09-19T04:10:38;95328.50;;;18.78;65.86
8703;BME280;9002;42.708;23.186;2023-09-19T04:13:05;95338.31;;;18.83;66.18
8703;BME280;9002;42.708;23.186;2023-09-19T04:15:33;95337.22;;;18.54;66.94
8703;BME280;9002;42.708;23.186;2023-09-19T04:18:00;95343.72;;;18.69;66.26
8703;BME280;9002;42.708;23.186;2023-09-19T04:20:30;95277.31;;;18.09;66.69
8703;BME280;9002;42.708;23.186;2023-09-19T04:22:57;95276.88;;;18.12;66.68
8703;BME280;9002;42.708;23.186;2023-09-19T04:25:25;95313.03;;;18.22;67.00
8703;BME280;9002;42.708;23.186;2023-09-19T04:27:53;95279.56;;;18.05;66.95
8703;BME280;9002;42.708;23.186;2023-09-19T04:30:20;95306.84;;;18.16;67.98
8703;BME280;9002;42.708;23.186;2023-09-19T04:32:47;95323.38;;;18.35;67.44
8703;BME280;9002;42.708;23.186;2023-09-19T04:35:16;95282.47;;;17.97;67.48
8703;BME280;9002;42.708;23.186;2023-09-19T04:37:44;95330.41;;;18.16;68.10
8703;BME280;9002;42.708;23.186;2023-09-19T04:40:12;95336.91;;;18.32;67.56
8703;BME280;9002;42.708;23.186;2023-09-19T04:42:42;95327.38;;;18.19;68.47
8703;BME280;9002;42.708;23.186;2023-09-19T04:45:10;95315.34;;;18.48;67.38
8703;BME280;9002;42.708;23.186;2023-09-19T04:47:37;95278.53;;;18.25;67.66
8703;BME280;9002;42.708;23.186;2023-09-19T04:50:07;95271.41;;;18.13;67.08
8703;BME280;9002;42.708;23.186;2023-09-19T04:52:39;95316.78;;;18.62;66.99
8703;BME280;9002;42.708;23.186;2023-09-19T04:55:10;95309.25;;;18.84;66.33
8703;BME280;9002;42.708;23.186;2023-09-19T04:57:43;95305.06;;;18.95;65.64
8703;BME280;9002;42.708;23.186;2023-09-19T05:00:12;95302.88;;;18.92;65.74
8703;BME280;9002;42.708;23.186;2023-09-19T05:02:40;95276.50;;;18.57;66.28
8703;BME280;9002;42.708;23.186;2023-09-19T05:05:08;95298.31;;;18.87;65.98
8703;BME280;9002;42.708;23.186;2023-09-19T05:07:36;95307.19;;;19.28;65.08
8703;BME280;9002;42.708;23.186;2023-09-19T05:10:04;95318.22;;;19.18;65.17
8703;BME280;9002;42.708;23.186;2023-09-19T05:12:34;95331.47;;;19.23;65.10
8703;BME280;9002;42.708;23.186;2023-09-19T05:15:02;95302.78;;;18.98;65.28
8703;BME280;9002;42.708;23.186;2023-09-19T05:17:29;95313.66;;;19.02;65.06
8703;BME280;9002;42.708;23.186;2023-09-19T05:19:57;95303.59;;;19.10;65.29
8703;BME280;9002;42.708;23.186;2023-09-19T05:22:29;95276.69;;;19.15;64.43
8703;BME280;9002;42.708;23.186;2023-09-19T05:24:57;95300.00;;;19.35;63.97
8703;BME280;9002;42.708;23.186;2023-09-19T05:27:24;95307.91;;;19.46;64.14
8703;BME280;9002;42.708;23.186;2023-09-19T05:30:12;95302.28;;;19.43;64.13
8703;BME280;9002;42.708;23.186;2023-09-19T05:32:41;95280.09;;;19.57;62.92
8703;BME280;9002;42.708;23.186;2023-09-19T05:35:09;95249.66;;;19.03;63.64
8703;BME280;9002;42.708;23.186;2023-09-19T05:37:38;95263.94;;;19.19;63.50
8703;BME280;9002;42.708;23.186;2023-09-19T05:40:07;95307.13;;;19.58;63.29
8703;BME280;9002;42.708;23.186;2023-09-19T05:42:36;95241.34;;;19.18;63.36
8703;BME280;9002;42.708;23.186;2023-09-19T05:45:04;95279.69;;;19.30;63.59
8703;BME280;9002;42.708;23.186;2023-09-19T05:47:33;95289.34;;;19.60;63.26
8703;BME280;9002;42.708;23.186;2023-09-19T05:50:00;95253.22;;;19.43;62.70
8703;BME280;9002;42.708;23.186;2023-09-19T05:52:26;95297.31;;;19.53;62.97
8703;BME280;9002;42.708;23.186;2023-09-19T05:54:53;95273.69;;;19.53;62.52
8703;BME280;9002;42.708;23.186;2023-09-19T05:57:22;95256.88;;;19.42;62.43
8703;BME280;9002;42.708;23.186;2023-09-19T05:59:50;95288.88;;;19.63;62.62
8703;BME280;9002;42.708;23.186;2023-09-19T06:02:17;95268.97;;;19.90;61.22
8703;BME280;9002;42.708;23.186;2023-09-19T06:04:46;95294.34;;;19.85;61.96
8703;BME280;9002;42.708;23.186;2023-09-19T06:07:13;95258.13;;;19.40;62.94
8703;BME280;9002;42.708;23.186;2023-09-19T06:09:42;95289.19;;;19.78;62.73
8703;BME280;9002;42.708;23.186;2023-09-19T06:12:08;95276.50;;;19.87;61.98
8703;BME280;9002;42.708;23.186;2023-09-19T06:14:39;95278.44;;;19.91;61.95
8703;BME280;9002;42.708;23.186;2023-09-19T06:17:06;95267.03;;;19.86;61.64
8703;BME280;9002;42.708;23.186;2023-09-19T06:19:33;95276.19;;;19.83;62.15
8703;BME280;9002;42.708;23.186;2023-09-19T06:22:02;95275.84;;;19.68;62.21
8703;BME280;9002;42.708;23.186;2023-09-19T06:24:29;95226.66;;;19.63;61.81
8703;BME280;9002;42.708;23.186;2023-09-19T06:26:56;95232.59;;;19.59;61.98
8703;BME280;9002;42.708;23.186;2023-09-19T06:29:23;95259.25;;;20.02;61.30
8703;BME280;9002;42.708;23.186;2023-09-19T06:31:50;95232.84;;;20.09;61.21
8703;BME280;9002;42.708;23.186;2023-09-19T06:34:17;95271.56;;;20.54;59.87
8703;BME280;9002;42.708;23.186;2023-09-19T06:36:44;95245.81;;;20.27;60.39
8703;BME280;9002;42.708;23.186;2023-09-19T06:39:13;95214.97;;;19.83;60.32
8703;BME280;9002;42.708;23.186;2023-09-19T06:41:40;95285.13;;;20.22;60.93
8703;BME280;9002;42.708;23.186;2023-09-19T06:44:07;95277.50;;;20.21;60.82
8703;BME280;9002;42.708;23.186;2023-09-19T06:46:35;95264.16;;;20.10;60.65
8703;BME280;9002;42.708;23.186;2023-09-19T06:49:04;95223.75;;;20.00;60.65
8703;BME280;9002;42.708;23.186;2023-09-19T06:51:32;95281.19;;;20.36;60.58
8703;BME280;9002;42.708;23.186;2023-09-19T06:54:00;95280.03;;;20.56;60.42
8703;BME280;9002;42.708;23.186;2023-09-19T06:56:28;95261.91;;;20.42;60.51
8703;BME280;9002;42.708;23.186;2023-09-19T06:58:55;95287.44;;;20.59;60.28
8703;BME280;9002;42.708;23.186;2023-09-19T07:01:22;95288.81;;;20.61;59.33
8703;BME280;9002;42.708;23.186;2023-09-19T07:03:50;95287.41;;;20.70;59.70
8703;BME280;9002;42.708;23.186;2023-09-19T07:06:18;95252.66;;;20.68;58.90
8703;BME280;9002;42.708;23.186;2023-09-19T07:08:45;95291.50;;;20.95;58.68
8703;BME280;9002;42.708;23.186;2023-09-19T07:11:12;95232.03;;;20.49;59.14
8703;BME280;9002;42.708;23.186;2023-09-19T07:13:40;95273.22;;;20.88;58.64
8703;BME280;9002;42.708;23.186;2023-09-19T07:16:07;95270.59;;;20.71;59.02
8703;BME280;9002;42.708;23.186;2023-09-19T07:18:35;95283.28;;;20.91;58.74
8703;BME280;9002;42.708;23.186;2023-09-19T07:21:03;95298.09;;;20.81;58.87
8703;BME280;9002;42.708;23.186;2023-09-19T07:23:31;95232.41;;;20.40;58.74
8703;BME280;9002;42.708;23.186;2023-09-19T07:26:00;95219.38;;;20.34;58.78
8703;BME280;9002;42.708;23.186;2023-09-19T07:28:30;95198.19;;;20.52;58.13
8703;BME280;9002;42.708;23.186;2023-09-19T07:31:02;95283.59;;;20.95;58.11
8703;BME280;9002;42.708;23.186;2023-09-19T07:33:30;95288.72;;;21.01;58.14
8703;BME280;9002;42.708;23.186;2023-09-19T07:35:57;95288.78;;;20.73;58.67
8703;BME280;9002;42.708;23.186;2023-09-19T07:38:24;95287.28;;;20.77;58.69
8703;BME280;9002;42.708;23.186;2023-09-19T07:40:52;95288.44;;;20.69;58.51
8703;BME280;9002;42.708;23.186;2023-09-19T07:43:18;95285.34;;;20.89;58.76
8703;BME280;9002;42.708;23.186;2023-09-19T07:45:45;95286.84;;;20.85;58.23
8703;BME280;9002;42.708;23.186;2023-09-19T07:48:14;95280.19;;;20.77;58.08
8703;BME280;9002;42.708;23.186;2023-09-19T07:50:41;95279.38;;;20.94;58.20
8703;BME280;9002;42.708;23.186;2023-09-19T07:53:09;95239.84;;;20.89;57.73
8703;BME280;9002;42.708;23.186;2023-09-19T07:55:38;95290.69;;;21.39;57.50
8703;BME280;9002;42.708;23.186;2023-09-19T07:58:06;95289.44;;;21.25;57.77
8703;BME280;9002;42.708;23.186;2023-09-19T08:00:33;95290.25;;;21.14;57.73
8703;BME280;9002;42.708;23.186;2023-09-19T08:03:00;95292.22;;;21.35;57.27
8703;BME280;9002;42.708;23.186;2023-09-19T08:05:30;95285.94;;;21.08;58.12
8703;BME280;9002;42.708;23.186;2023-09-19T08:07:59;95243.97;;;20.85;58.10
8703;BME280;9002;42.708;23.186;2023-09-19T08:10:26;95235.34;;;21.34;57.04
8703;BME280;9002;42.708;23.186;2023-09-19T08:13:00;95270.94;;;21.37;56.68
8703;BME280;9002;42.708;23.186;2023-09-19T08:15:27;95267.06;;;21.45;56.82
8703;BME280;9002;42.708;23.186;2023-09-19T08:17:54;95257.81;;;21.42;56.59
8703;BME280;9002;42.708;23.186;2023-09-19T08:20:21;95227.94;;;21.31;56.41
8703;BME280;9002;42.708;23.186;2023-09-19T08:22:51;95261.81;;;21.45;57.00
8703;BME280;9002;42.708;23.186;2023-09-19T08:25:19;95201.59;;;21.15;56.54
8703;BME280;9002;42.708;23.186;2023-09-19T08:27:47;95222.75;;;21.36;56.55
8703;BME280;9002;42.708;23.186;2023-09-19T08:30:15;95263.69;;;21.83;55.92
8703;BME280;9002;42.708;23.186;2023-09-19T08:32:43;95263.50;;;21.89;55.58
8703;BME280;9002;42.708;23.186;2023-09-19T08:35:11;95273.97;;;21.84;55.49
8703;BME280;9002;42.708;23.186;2023-09-19T08:37:38;95276.16;;;21.54;56.64
8703;BME280;9002;42.708;23.186;2023-09-19T08:42:55;95265.50;;;21.82;56.40
8703;BME280;9002;42.708;23.186;2023-09-19T08:45:24;95225.25;;;21.87;55.44
8703;BME280;9002;42.708;23.186;2023-09-19T08:50:26;95187.44;;;21.76;54.80
8703;BME280;9002;42.708;23.186;2023-09-19T08:52:55;95183.91;;;21.87;55.06
8703;BME280;9002;42.708;23.186;2023-09-19T08:55:27;95234.34;;;22.18;54.68
8703;BME280;9002;42.708;23.186;2023-09-19T08:58:00;95249.50;;;22.27;55.01
8703;BME280;9002;42.708;23.186;2023-09-19T09:00:27;95219.16;;;22.03;54.61
8703;BME280;9002;42.708;23.186;2023-09-19T09:02:56;95241.34;;;22.29;55.25
8703;BME280;9002;42.708;23.186;2023-09-19T09:05:24;95245.81;;;22.06;55.41
8703;BME280;9002;42.708;23.186;2023-09-19T09:07:52;95235.22;;;22.23;55.24
8703;BME280;9002;42.708;23.186;2023-09-19T09:10:22;95249.50;;;22.49;54.96
8703;BME280;9002;42.708;23.186;2023-09-19T09:12:51;95250.59;;;22.58;54.56
8703;BME280;9002;42.708;23.186;2023-09-19T09:15:19;95228.41;;;22.54;54.22
8703;BME280;9002;42.708;23.186;2023-09-19T09:17:47;95231.66;;;22.61;54.27
8703;BME280;9002;42.708;23.186;2023-09-19T09:20:16;95223.28;;;22.69;53.74
8703;BME280;9002;42.708;23.186;2023-09-19T09:27:58;95113.78;;;22.35;52.86
8703;BME280;9002;42.708;23.186;2023-09-19T09:30:33;95206.03;;;23.16;52.17
8703;BME280;9002;42.708;23.186;2023-09-19T09:33:18;95198.69;;;23.23;51.87
8703;BME280;9002;42.708;23.186;2023-09-19T09:35:49;95210.19;;;23.07;52.40
8703;BME280;9002;42.708;23.186;2023-09-19T09:38:18;95189.38;;;23.10;52.31
8703;BME280;9002;42.708;23.186;2023-09-19T09:40:47;95203.16;;;23.22;52.45
8703;BME280;9002;42.708;23.186;2023-09-19T09:43:31;95201.94;;;23.35;52.09
8703;BME280;9002;42.708;23.186;2023-09-19T09:46:12;95199.16;;;23.52;51.66
8703;BME280;9002;42.708;23.186;2023-09-19T09:48:57;95179.44;;;23.64;50.89
8703;BME280;9002;42.708;23.186;2023-09-19T09:51:38;95194.56;;;23.84;50.93
8703;BME280;9002;42.708;23.186;2023-09-19T09:54:13;95186.91;;;23.83;50.71
8703;BME280;9002;42.708;23.186;2023-09-19T09:56:54;95175.19;;;23.63;51.04
8703;BME280;9002;42.708;23.186;2023-09-19T09:59:44;95186.72;;;23.52;51.37
8703;BME280;9002;42.708;23.186;2023-09-19T10:02:13;95178.81;;;23.52;51.56
8703;BME280;9002;42.708;23.186;2023-09-19T10:04:46;95184.22;;;23.67;51.27
8703;BME280;9002;42.708;23.186;2023-09-19T10:07:28;95184.09;;;23.52;51.06
8703;BME280;9002;42.708;23.186;2023-09-19T10:09:59;95170.88;;;23.52;51.63
8703;BME280;9002;42.708;23.186;2023-09-19T10:12:38;95171.91;;;23.46;51.00
8703;BME280;9002;42.708;23.186;2023-09-19T10:15:08;95163.72;;;23.48;51.21
8703;BME280;9002;42.708;23.186;2023-09-19T10:17:36;95114.25;;;23.33;50.79
8703;BME280;9002;42.708;23.186;2023-09-19T10:20:07;95165.44;;;23.69;50.52
8703;BME280;9002;42.708;23.186;2023-09-19T10:22:46;95089.63;;;23.22;50.34
8703;BME280;9002;42.708;23.186;2023-09-19T10:25:25;95134.41;;;23.49;50.45
8703;BME280;9002;42.708;23.186;2023-09-19T10:27:54;95184.31;;;23.93;50.20
8703;BME280;9002;42.708;23.186;2023-09-19T10:30:25;95179.75;;;23.83;50.78
8703;BME280;9002;42.708;23.186;2023-09-19T10:33:00;95117.75;;;23.44;50.70
8703;BME280;9002;42.708;23.186;2023-09-19T10:35:27;95166.88;;;23.97;50.91
8703;BME280;9002;42.708;23.186;2023-09-19T10:37:57;95159.16;;;23.85;49.69
8703;BME280;9002;42.708;23.186;2023-09-19T10:40:27;95172.69;;;23.99;49.97
8703;BME280;9002;42.708;23.186;2023-09-19T10:43:01;95177.69;;;23.90;49.81
8703;BME280;9002;42.708;23.186;2023-09-19T10:45:32;95159.13;;;23.75;50.59
8703;BME280;9002;42.708;23.186;2023-09-19T10:48:00;95166.50;;;23.68;50.64
8703;BME280;9002;42.708;23.186;2023-09-19T10:50:31;95157.63;;;23.94;50.10
8703;BME280;9002;42.708;23.186;2023-09-19T10:53:00;95158.56;;;23.68;50.55
8703;BME280;9002;42.708;23.186;2023-09-19T10:55:32;95142.63;;;23.53;50.80
8703;BME280;9002;42.708;23.186;2023-09-19T10:58:01;95106.88;;;23.35;50.85
8703;BME280;9002;42.708;23.186;2023-09-19T11:00:50;95157.06;;;23.92;50.50
8703;BME280;9002;42.708;23.186;2023-09-19T11:03:19;95132.00;;;24.00;50.13
8703;BME280;9002;42.708;23.186;2023-09-19T11:06:02;95151.34;;;24.16;49.65
8703;BME280;9002;42.708;23.186;2023-09-19T11:08:53;95128.59;;;24.10;49.82
8703;BME280;9002;42.708;23.186;2023-09-19T11:11:42;95115.31;;;23.94;50.08
8703;BME280;9002;42.708;23.186;2023-09-19T11:14:16;95145.31;;;24.25;49.79
8703;BME280;9002;42.708;23.186;2023-09-19T11:20:31;95136.63;;;24.60;48.84
8703;BME280;9002;42.708;23.186;2023-09-19T11:23:21;95127.81;;;24.14;48.93
8703;BME280;9002;42.708;23.186;2023-09-19T11:25:56;95072.16;;;23.74;49.91
8703;BME280;9002;42.708;23.186;2023-09-19T11:28:31;95135.28;;;24.53;49.21
8703;BME280;9002;42.708;23.186;2023-09-19T11:30:57;95095.34;;;24.54;48.36
8703;BME280;9002;42.708;23.186;2023-09-19T11:33:29;95121.25;;;25.13;47.16
8703;BME280;9002;42.708;23.186;2023-09-19T11:36:01;95118.34;;;25.20;47.27
8703;BME280;9002;42.708;23.186;2023-09-19T11:41:38;95102.16;;;25.31;46.72
8703;BME280;9002;42.708;23.186;2023-09-19T11:44:33;95096.84;;;25.37;47.39
8703;BME280;9002;42.708;23.186;2023-09-19T11:47:05;95081.28;;;25.15;46.76
8703;BME280;9002;42.708;23.186;2023-09-19T11:49:32;95090.81;;;25.16;47.83
8703;BME280;9002;42.708;23.186;2023-09-19T11:52:05;95088.94;;;25.21;47.35
8703;BME280;9002;42.708;23.186;2023-09-19T11:54:35;95032.34;;;24.82;47.41
8703;BME280;9002;42.708;23.186;2023-09-19T11:57:05;95034.41;;;25.10;46.45
8703;BME280;9002;42.708;23.186;2023-09-19T11:59:38;95089.84;;;25.71;46.09
8703;BME280;9002;42.708;23.186;2023-09-19T12:02:07;95078.06;;;25.97;45.71
8703;BME280;9002;42.708;23.186;2023-09-19T12:04:35;95072.91;;;26.55;44.73
8703;BME280;9002;42.708;23.186;2023-09-19T12:07:06;95069.81;;;27.06;43.72
8703;BME280;9002;42.708;23.186;2023-09-19T12:09:39;95073.94;;;27.41;42.59
8703;BME280;9002;42.708;23.186;2023-09-19T12:12:06;95062.13;;;27.52;41.86
8703;BME280;9002;42.708;23.186;2023-09-19T12:14:34;95055.34;;;27.84;41.76
8703;BME280;9002;42.708;23.186;2023-09-19T12:17:01;95059.81;;;27.88;41.87
8703;BME280;9002;42.708;23.186;2023-09-19T12:19:29;95049.16;;;28.45;40.36
8703;BME280;9002;42.708;23.186;2023-09-19T12:21:57;95046.25;;;29.06;39.31
8703;BME280;9002;42.708;23.186;2023-09-19T12:24:27;95032.38;;;29.23;38.87
8703;BME280;9002;42.708;23.186;2023-09-19T12:27:00;95041.66;;;29.53;38.58
8703;BME280;9002;42.708;23.186;2023-09-19T12:29:27;95031.47;;;29.55;38.57
8703;BME280;9002;42.708;23.186;2023-09-19T12:31:56;95024.84;;;29.66;38.46
8703;BME280;9002;42.708;23.186;2023-09-19T12:34:24;95031.34;;;29.74;37.69
8703;BME280;9002;42.708;23.186;2023-09-19T12:37:06;95024.53;;;29.81;37.65
8703;BME280;9002;42.708;23.186;2023-09-19T12:39:39;95016.72;;;30.43;36.58
8703;BME280;9002;42.708;23.186;2023-09-19T12:42:09;95017.88;;;30.51;36.46
8703;BME280;9002;42.708;23.186;2023-09-19T12:44:40;95018.16;;;30.72;36.62
8703;BME280;9002;42.708;23.186;2023-09-19T12:47:10;95013.94;;;30.48;36.20
8703;BME280;9002;42.708;23.186;2023-09-19T12:52:39;95024.69;;;30.88;35.82
8703;BME280;9002;42.708;23.186;2023-09-19T12:55:08;95012.94;;;30.00;37.29
8703;BME280;9002;42.708;23.186;2023-09-19T12:57:55;95011.91;;;30.54;36.34
8703;BME280;9002;42.708;23.186;2023-09-19T13:00:31;95004.28;;;30.92;36.39
8703;BME280;9002;42.708;23.186;2023-09-19T13:03:13;94994.19;;;30.89;35.87
8703;BME280;9002;42.708;23.186;2023-09-19T13:05:54;94998.13;;;31.14;35.83
8703;BME280;9002;42.708;23.186;2023-09-19T13:08:24;94987.63;;;31.35;35.53
8703;BME280;9002;42.708;23.186;2023-09-19T13:11:03;94995.22;;;31.50;34.89
8703;BME280;9002;42.708;23.186;2023-09-19T13:13:32;94992.03;;;31.39;35.09
8703;BME280;9002;42.708;23.186;2023-09-19T13:16:01;94992.66;;;31.36;35.39
8703;BME280;9002;42.708;23.186;2023-09-19T13:18:30;94985.84;;;31.96;33.86
8703;BME280;9002;42.708;23.186;2023-09-19T13:21:08;94962.81;;;31.60;34.32
8703;BME280;9002;42.708;23.186;2023-09-19T13:23:37;94983.00;;;31.83;34.31
8703;BME280;9002;42.708;23.186;2023-09-19T13:26:06;94971.03;;;31.81;34.38
8703;BME280;9002;42.708;23.186;2023-09-19T13:28:33;94955.16;;;31.76;34.90
8703;BME280;9002;42.708;23.186;2023-09-19T13:31:01;94965.53;;;32.03;34.70
8703;BME280;9002;42.708;23.186;2023-09-19T13:33:28;94958.28;;;32.12;34.65
8703;BME280;9002;42.708;23.186;2023-09-19T13:35:56;94963.47;;;32.09;34.66
8703;BME280;9002;42.708;23.186;2023-09-19T13:38:23;94975.28;;;32.08;34.48
8703;BME280;9002;42.708;23.186;2023-09-19T13:40:50;94961.13;;;32.25;34.05
8703;BME280;9002;42.708;23.186;2023-09-19T13:43:19;94970.72;;;31.82;34.80
8703;BME280;9002;42.708;23.186;2023-09-19T13:45:47;94969.25;;;31.02;36.20